< < Back
Terminal Aerodrome Forecast


Current Version              Previous Versions:   1  2  3  4  5  6  7  8  9  

Terminal Aerodrome Forecast

678
FTUS42 KTAE 061120
TAFDHN
TAF
KDHN 061120Z 0612/0712 VRB04KT P6SM BKN250
     FM061500 29010KT P6SM SCT050
     FM061800 29008KT P6SM VCTS BKN050CB
     FM070000 27005KT P6SM BKN250=

Latest METAR

199
SAUS70 KWBC 070200
MTRDHN
METAR KDHN 070153Z 31003KT 10SM CLR 26/24 A3013 RMK AO2 SLP198
T02560239


USA.gov is the U.S. government's official web portal to all federal, state and local government web resources and services.